createdAt,value
2023-01-13T00:01:29.343Z,100.00
2023-01-13T00:03:57.447Z,100.00
2023-01-13T00:06:29.710Z,100.00
2023-01-13T00:08:56.958Z,100.00
2023-01-13T00:11:24.681Z,100.00
2023-01-13T00:13:51.968Z,100.00
2023-01-13T00:16:20.126Z,100.00
2023-01-13T00:18:48.449Z,100.00
2023-01-13T00:21:19.562Z,100.00
2023-01-13T00:23:47.644Z,100.00
2023-01-13T00:26:18.452Z,100.00
2023-01-13T00:28:45.568Z,100.00
2023-01-13T00:31:16.337Z,100.00
2023-01-13T00:33:44.041Z,100.00
2023-01-13T00:36:16.126Z,100.00
2023-01-13T00:38:44.139Z,100.00
2023-01-13T00:41:16.386Z,100.00
2023-01-13T00:43:44.280Z,100.00
2023-01-13T00:46:14.347Z,100.00
2023-01-13T00:48:41.339Z,100.00
2023-01-13T00:51:13.329Z,100.00
2023-01-13T00:53:43.643Z,100.00
2023-01-13T00:56:34.046Z,100.00
2023-01-13T00:59:06.008Z,100.00
2023-01-13T01:01:33.519Z,100.00
2023-01-13T01:04:00.444Z,100.00
2023-01-13T01:06:28.521Z,100.00
2023-01-13T01:08:56.125Z,100.00
2023-01-13T01:11:29.242Z,100.00
2023-01-13T01:13:58.532Z,100.00
2023-01-13T01:16:28.629Z,100.00
2023-01-13T01:18:56.528Z,100.00
2023-01-13T01:21:25.914Z,100.00
2023-01-13T01:23:53.895Z,100.00
2023-01-13T01:26:25.887Z,100.00
2023-01-13T01:28:53.964Z,100.00
2023-01-13T01:31:27.618Z,100.00
2023-01-13T01:33:55.887Z,100.00
2023-01-13T01:36:26.307Z,100.00
2023-01-13T01:38:58.058Z,100.00
2023-01-13T01:41:28.287Z,100.00
2023-01-13T01:44:10.716Z,100.00
2023-01-13T01:46:42.827Z,100.00
2023-01-13T01:49:43.164Z,100.00
2023-01-13T01:52:19.971Z,100.00
2023-01-13T01:54:58.924Z,100.00
2023-01-13T01:57:53.403Z,100.00
2023-01-13T02:00:20.922Z,100.00
2023-01-13T02:02:50.604Z,100.00
2023-01-13T02:05:18.123Z,100.00
2023-01-13T02:07:49.564Z,100.00
2023-01-13T02:10:20.845Z,100.00
2023-01-13T02:12:49.966Z,100.00
2023-01-13T02:15:21.325Z,100.00
2023-01-13T02:18:15.970Z,100.00
2023-01-13T02:20:55.010Z,100.00
2023-01-13T02:23:59.491Z,100.00
2023-01-13T02:26:51.162Z,100.00
2023-01-13T02:29:57.085Z,100.00
2023-01-13T02:32:34.682Z,100.00
2023-01-13T02:35:07.772Z,100.00
2023-01-13T02:37:39.729Z,100.00
2023-01-13T02:40:10.534Z,100.00
2023-01-13T02:43:04.133Z,100.00
2023-01-13T02:45:44.381Z,100.00
2023-01-13T02:48:14.364Z,100.00
2023-01-13T02:51:07.723Z,100.00
2023-01-13T02:53:40.937Z,100.00
2023-01-13T02:56:13.885Z,100.00
2023-01-13T02:58:43.582Z,100.00
2023-01-13T03:01:10.706Z,100.00
2023-01-13T03:03:38.045Z,100.00
2023-01-13T03:06:25.975Z,100.00
2023-01-13T03:09:06.383Z,100.00
2023-01-13T03:11:50.605Z,100.00
2023-01-13T03:14:55.487Z,100.00
2023-01-13T03:17:40.208Z,100.00
2023-01-13T03:20:16.846Z,100.00
2023-01-13T03:23:14.605Z,100.00
2023-01-13T03:25:51.004Z,100.00
2023-01-13T03:28:29.013Z,100.00
2023-01-13T03:31:08.285Z,100.00
2023-01-13T03:33:45.975Z,100.00
2023-01-13T03:36:18.121Z,100.00
2023-01-13T03:38:51.724Z,100.00
2023-01-13T03:41:25.724Z,100.00
2023-01-13T03:44:19.246Z,100.00
2023-01-13T03:47:09.489Z,100.00
2023-01-13T03:49:55.565Z,100.00
2023-01-13T03:52:28.534Z,100.00
2023-01-13T03:55:04.452Z,100.00
2023-01-13T03:57:37.688Z,100.00
2023-01-13T04:00:09.729Z,100.00
2023-01-13T04:02:59.412Z,100.00
2023-01-13T04:05:28.720Z,100.00
2023-01-13T04:08:05.877Z,100.00
2023-01-13T04:10:41.192Z,100.00
2023-01-13T04:13:16.688Z,100.00
2023-01-13T04:15:46.184Z,100.00
2023-01-13T04:18:30.609Z,100.00
2023-01-13T04:21:00.210Z,100.00
2023-01-13T04:23:28.259Z,100.00
2023-01-13T04:25:56.126Z,100.00
2023-01-13T04:28:23.486Z,100.00
2023-01-13T04:30:50.898Z,100.00
2023-01-13T04:33:20.444Z,100.00
2023-01-13T04:35:49.886Z,100.00
2023-01-13T04:38:19.651Z,100.00
2023-01-13T04:40:46.767Z,100.00
2023-01-13T04:43:15.919Z,100.00
2023-01-13T04:45:44.121Z,100.00
2023-01-13T04:48:11.649Z,100.00
2023-01-13T04:50:39.715Z,100.00
2023-01-13T04:53:07.369Z,100.00
2023-01-13T04:55:36.557Z,100.00
2023-01-13T04:58:10.240Z,100.00
2023-01-13T05:00:39.261Z,100.00
2023-01-13T05:03:14.329Z,100.00
2023-01-13T05:05:44.123Z,100.00
2023-01-13T05:08:13.652Z,100.00
2023-01-13T05:10:41.368Z,100.00
2023-01-13T05:13:29.404Z,100.00
2023-01-13T05:16:21.469Z,100.00
2023-01-13T05:18:49.863Z,100.00
2023-01-13T05:21:35.683Z,100.00
2023-01-13T05:24:21.485Z,100.00
2023-01-13T05:26:48.685Z,100.00
2023-01-13T05:29:15.802Z,100.00
2023-01-13T05:31:43.408Z,100.00
2023-01-13T05:34:10.911Z,100.00
2023-01-13T05:36:37.967Z,100.00
2023-01-13T05:39:05.502Z,100.00
2023-01-13T05:41:51.734Z,100.00
2023-01-13T05:44:19.253Z,100.00
2023-01-13T05:46:46.579Z,100.00
2023-01-13T05:49:13.892Z,100.00
2023-01-13T05:51:40.940Z,100.00
2023-01-13T05:54:08.043Z,100.00
2023-01-13T05:56:35.449Z,100.00
2023-01-13T05:59:02.944Z,100.00
2023-01-13T06:01:29.943Z,100.00
2023-01-13T06:03:57.644Z,100.00
2023-01-13T06:06:24.689Z,100.00
2023-01-13T06:08:52.207Z,100.00
2023-01-13T06:11:19.564Z,100.00
2023-01-13T06:13:47.003Z,100.00
2023-01-13T06:16:14.187Z,100.00
2023-01-13T06:18:41.641Z,100.00
2023-01-13T06:21:08.925Z,100.00
2023-01-13T06:23:38.884Z,100.00
2023-01-13T06:26:14.766Z,100.00
2023-01-13T06:28:42.458Z,100.00
2023-01-13T06:31:10.976Z,100.00
2023-01-13T06:33:44.048Z,100.00
2023-01-13T06:36:19.739Z,100.00
2023-01-13T06:38:50.303Z,100.00
2023-01-13T06:41:39.567Z,100.00
2023-01-13T06:44:07.511Z,100.00
2023-01-13T06:46:36.080Z,100.00
2023-01-13T06:49:04.216Z,100.00
2023-01-13T06:51:31.509Z,100.00
2023-01-13T06:53:58.606Z,100.00
2023-01-13T06:56:25.905Z,100.00
2023-01-13T06:58:53.085Z,100.00
2023-01-13T07:01:20.525Z,100.00
2023-01-13T07:03:47.883Z,100.00
2023-01-13T07:06:15.085Z,100.00
2023-01-13T07:08:42.855Z,100.00
2023-01-13T07:11:09.804Z,100.00
2023-01-13T07:13:55.672Z,100.00
2023-01-13T07:16:24.618Z,100.00
2023-01-13T07:18:51.807Z,100.00
2023-01-13T07:21:21.019Z,100.00
2023-01-13T07:23:49.076Z,100.00
2023-01-13T07:26:17.084Z,100.00
2023-01-13T07:28:48.922Z,100.00
2023-01-13T07:31:18.596Z,100.00
2023-01-13T07:33:46.457Z,100.00
2023-01-13T07:36:16.070Z,100.00
2023-01-13T07:38:47.093Z,100.00
2023-01-13T07:41:34.042Z,100.00
2023-01-13T07:44:05.202Z,100.00
2023-01-13T07:46:33.988Z,100.00
2023-01-13T07:49:01.203Z,100.00
2023-01-13T07:51:29.643Z,100.00
2023-01-13T07:53:57.479Z,100.00
2023-01-13T07:56:25.165Z,100.00
2023-01-13T07:58:53.201Z,100.00
2023-01-13T08:01:20.804Z,100.00
2023-01-13T08:03:47.972Z,100.00
2023-01-13T08:06:15.491Z,100.00
2023-01-13T08:08:45.087Z,100.00
2023-01-13T08:11:12.378Z,100.00
2023-01-13T08:13:39.571Z,100.00
2023-01-13T08:16:09.732Z,100.00
2023-01-13T08:18:38.532Z,100.00
2023-01-13T08:21:08.702Z,100.00
2023-01-13T08:23:36.374Z,100.00
2023-01-13T08:26:08.764Z,100.00
2023-01-13T08:28:35.810Z,100.00
2023-01-13T08:31:05.553Z,100.00
2023-01-13T08:33:33.734Z,100.00
2023-01-13T08:36:05.643Z,100.00
2023-01-13T08:38:34.776Z,100.00
2023-01-13T08:41:08.872Z,100.00
2023-01-13T08:43:36.047Z,100.00
2023-01-13T08:46:07.203Z,100.00
2023-01-13T08:48:34.586Z,100.00
2023-01-13T08:51:07.891Z,100.00
2023-01-13T08:53:35.164Z,100.00
2023-01-13T08:56:02.861Z,100.00
2023-01-13T08:58:30.134Z,100.00
2023-01-13T09:00:57.421Z,100.00
2023-01-13T09:03:24.763Z,100.00
2023-01-13T09:05:52.049Z,100.00
2023-01-13T09:08:19.651Z,100.00
2023-01-13T09:10:47.165Z,100.00
2023-01-13T09:13:15.749Z,100.00
2023-01-13T09:15:45.693Z,100.00
2023-01-13T09:18:13.648Z,100.00
2023-01-13T09:20:40.927Z,100.00
2023-01-13T09:23:10.624Z,100.00
2023-01-13T09:25:39.753Z,100.00
2023-01-13T09:28:08.913Z,100.00
2023-01-13T09:30:38.137Z,100.00
2023-01-13T09:33:23.836Z,100.00
2023-01-13T09:35:51.092Z,100.00
2023-01-13T09:38:20.048Z,100.00
2023-01-13T09:40:49.569Z,100.00
2023-01-13T09:43:53.845Z,100.00
2023-01-13T09:46:48.195Z,100.00
2023-01-13T09:49:23.039Z,100.00
2023-01-13T09:52:04.205Z,100.00
2023-01-13T09:54:38.849Z,100.00
2023-01-13T09:57:14.610Z,100.00
2023-01-13T09:59:42.764Z,100.00
2023-01-13T10:02:48.285Z,100.00
2023-01-13T10:05:20.842Z,100.00
2023-01-13T10:07:53.571Z,100.00
2023-01-13T10:10:49.177Z,100.00
2023-01-13T10:13:24.646Z,100.00
2023-01-13T10:16:13.162Z,100.00
2023-01-13T10:19:05.850Z,100.00
2023-01-13T10:21:39.495Z,100.00
2023-01-13T10:24:10.606Z,100.00
2023-01-13T10:26:53.725Z,100.00
2023-01-13T10:29:26.218Z,100.00
2023-01-13T10:31:57.829Z,100.00
2023-01-13T10:34:26.290Z,100.00
2023-01-13T10:37:09.727Z,100.00
2023-01-13T10:39:46.449Z,100.00
2023-01-13T10:42:22.348Z,100.00
2023-01-13T10:44:52.372Z,100.00
2023-01-13T10:47:31.636Z,100.00
2023-01-13T10:50:11.407Z,100.00
2023-01-13T10:52:43.262Z,100.00
2023-01-13T10:55:27.636Z,100.00
2023-01-13T10:57:54.931Z,100.00
2023-01-13T11:00:49.644Z,100.00
2023-01-13T11:03:18.926Z,100.00
2023-01-13T11:06:04.768Z,100.00
2023-01-13T11:08:45.394Z,100.00
2023-01-13T11:11:42.855Z,98.04
2023-01-13T11:14:46.621Z,86.80
2023-01-13T11:17:33.622Z,74.05
2023-01-13T11:20:14.207Z,59.63
2023-01-13T11:22:52.345Z,53.44
2023-01-13T11:25:44.941Z,51.08
2023-01-13T11:28:48.271Z,46.42
2023-01-13T11:31:20.269Z,42.11
2023-01-13T11:33:55.331Z,40.46
2023-01-13T11:36:31.676Z,38.40
2023-01-13T11:39:27.174Z,38.87
2023-01-13T11:42:19.327Z,40.35
2023-01-13T11:45:19.891Z,41.38
2023-01-13T11:47:51.530Z,42.36
2023-01-13T11:50:54.327Z,42.61
2023-01-13T11:53:49.845Z,42.46
2023-01-13T11:56:39.096Z,41.28
2023-01-13T11:59:37.399Z,40.05
2023-01-13T12:02:04.687Z,40.90
2023-01-13T12:04:49.299Z,40.96
2023-01-13T12:07:25.932Z,43.39
2023-01-13T12:10:29.298Z,46.74
2023-01-13T12:13:09.951Z,49.25
2023-01-13T12:16:01.636Z,51.76
2023-01-13T12:18:48.285Z,53.87
2023-01-13T12:21:25.927Z,57.03
2023-01-13T12:24:05.167Z,56.00
2023-01-13T12:26:39.391Z,56.03
2023-01-13T12:29:14.584Z,58.18
2023-01-13T12:31:44.390Z,59.11
2023-01-13T12:34:37.455Z,60.30
2023-01-13T12:37:10.841Z,60.87
2023-01-13T12:40:22.331Z,62.43
2023-01-13T12:43:26.914Z,59.18
2023-01-13T12:45:54.032Z,58.13
2023-01-13T12:49:00.244Z,58.83
2023-01-13T12:51:38.483Z,57.91
2023-01-13T12:54:38.086Z,55.38
2023-01-13T12:57:24.967Z,60.04
2023-01-13T13:00:16.565Z,64.56
2023-01-13T13:03:06.157Z,63.38
2023-01-13T13:05:59.510Z,68.28
2023-01-13T13:08:43.048Z,68.52
2023-01-13T13:11:49.882Z,69.83
2023-01-13T13:14:37.918Z,70.11
2023-01-13T13:17:11.773Z,71.11
2023-01-13T13:19:39.349Z,73.06
2023-01-13T13:22:12.486Z,73.84
2023-01-13T13:24:42.405Z,74.18
2023-01-13T13:27:45.216Z,75.61
2023-01-13T13:30:49.358Z,75.87
2023-01-13T13:33:32.164Z,77.88
2023-01-13T13:36:40.248Z,77.38
2023-01-13T13:39:47.448Z,78.93
2023-01-13T13:42:36.568Z,79.30
2023-01-13T13:45:34.966Z,83.03
2023-01-13T13:48:39.639Z,87.34
2023-01-13T13:51:49.623Z,86.32
2023-01-13T13:54:21.396Z,89.65
2023-01-13T13:56:51.043Z,90.39
2023-01-13T13:59:27.241Z,90.45
2023-01-13T14:02:06.488Z,90.25
2023-01-13T14:04:37.117Z,89.96
2023-01-13T14:07:21.096Z,91.29
2023-01-13T14:09:52.930Z,91.98
2023-01-13T14:12:26.138Z,92.50
2023-01-13T14:14:57.720Z,92.38
2023-01-13T14:17:28.062Z,93.83
2023-01-13T14:20:06.363Z,95.15
2023-01-13T14:22:35.217Z,97.05
2023-01-13T14:25:03.892Z,99.27
2023-01-13T14:27:32.296Z,100.00
2023-01-13T14:30:01.878Z,100.00
2023-01-13T14:32:36.749Z,100.00
2023-01-13T14:35:07.805Z,100.00
2023-01-13T14:37:41.026Z,100.00
2023-01-13T14:40:33.890Z,100.00
2023-01-13T14:43:03.989Z,100.00
2023-01-13T14:45:33.533Z,100.00
2023-01-13T14:48:02.812Z,100.00
2023-01-13T14:50:34.424Z,100.00
2023-01-13T14:53:02.753Z,100.00
2023-01-13T14:55:41.609Z,100.00
2023-01-13T14:58:26.417Z,100.00
2023-01-13T15:01:27.072Z,100.00
2023-01-13T15:03:54.738Z,100.00
2023-01-13T15:06:27.151Z,100.00
2023-01-13T15:08:54.673Z,100.00
2023-01-13T15:11:28.879Z,100.00
2023-01-13T15:14:04.566Z,100.00
2023-01-13T15:16:34.717Z,100.00
2023-01-13T15:19:03.604Z,100.00
2023-01-13T15:21:32.098Z,100.00
2023-01-13T15:24:02.749Z,100.00
2023-01-13T15:26:33.446Z,100.00
2023-01-13T15:29:01.435Z,100.00
2023-01-13T15:31:29.272Z,100.00
2023-01-13T15:33:59.046Z,100.00
2023-01-13T15:36:32.344Z,100.00
2023-01-13T15:39:02.174Z,100.00
2023-01-13T15:41:48.170Z,100.00
2023-01-13T15:44:35.970Z,100.00
2023-01-13T15:47:07.388Z,100.00
2023-01-13T15:49:45.106Z,100.00
2023-01-13T15:52:25.604Z,100.00
2023-01-13T15:54:54.533Z,100.00
2023-01-13T15:57:31.850Z,100.00
2023-01-13T16:00:02.899Z,100.00
2023-01-13T16:02:34.288Z,100.00
2023-01-13T16:05:02.408Z,100.00
2023-01-13T16:07:30.047Z,100.00
2023-01-13T16:09:57.694Z,100.00
2023-01-13T16:12:24.894Z,100.00
2023-01-13T16:14:53.053Z,100.00
2023-01-13T16:17:23.778Z,100.00
2023-01-13T16:19:52.173Z,100.00
2023-01-13T16:22:19.393Z,100.00
2023-01-13T16:24:48.592Z,100.00
2023-01-13T16:27:22.510Z,100.00
2023-01-13T16:29:51.982Z,100.00
2023-01-13T16:32:22.327Z,100.00
2023-01-13T16:34:51.174Z,100.00
2023-01-13T16:37:26.354Z,100.00
2023-01-13T16:39:54.875Z,100.00
2023-01-13T16:42:23.345Z,100.00
2023-01-13T16:44:52.068Z,100.00
2023-01-13T16:47:19.762Z,100.00
2023-01-13T16:49:48.233Z,100.00
2023-01-13T16:52:15.597Z,100.00
2023-01-13T16:54:42.718Z,100.00
2023-01-13T16:57:14.007Z,100.00
2023-01-13T16:59:45.481Z,100.00
2023-01-13T17:02:16.806Z,100.00
2023-01-13T17:04:43.904Z,100.00
2023-01-13T17:07:17.449Z,100.00
2023-01-13T17:09:45.830Z,100.00
2023-01-13T17:12:13.859Z,100.00
2023-01-13T17:14:43.613Z,100.00
2023-01-13T17:17:22.195Z,100.00
2023-01-13T17:19:49.367Z,100.00
2023-01-13T17:22:16.825Z,100.00
2023-01-13T17:24:44.086Z,100.00
2023-01-13T17:27:13.846Z,100.00
2023-01-13T17:29:42.808Z,100.00
2023-01-13T17:32:16.242Z,100.00
2023-01-13T17:34:44.406Z,100.00
2023-01-13T17:37:16.734Z,100.00
2023-01-13T17:39:46.568Z,100.00
2023-01-13T17:42:14.569Z,100.00
2023-01-13T17:44:43.219Z,100.00
2023-01-13T17:47:11.341Z,100.00
2023-01-13T17:49:39.799Z,100.00
2023-01-13T17:52:08.112Z,100.00
2023-01-13T17:54:36.163Z,100.00
2023-01-13T17:57:04.564Z,100.00
2023-01-13T17:59:32.708Z,100.00
2023-01-13T18:02:00.633Z,100.00
2023-01-13T18:04:29.218Z,100.00
2023-01-13T18:06:59.845Z,100.00
2023-01-13T18:09:30.720Z,100.00
2023-01-13T18:11:59.202Z,100.00
2023-01-13T18:14:28.593Z,100.00
2023-01-13T18:16:56.076Z,100.00
2023-01-13T18:19:42.798Z,100.00
2023-01-13T18:22:33.533Z,100.00
2023-01-13T18:25:21.797Z,100.00
2023-01-13T18:27:49.124Z,100.00
2023-01-13T18:30:16.415Z,100.00
2023-01-13T18:32:43.685Z,100.00
2023-01-13T18:35:12.237Z,100.00
2023-01-13T18:37:43.856Z,100.00
2023-01-13T18:40:13.858Z,100.00
2023-01-13T18:43:00.578Z,100.00
2023-01-13T18:45:29.995Z,100.00
2023-01-13T18:48:00.479Z,100.00
2023-01-13T18:50:28.729Z,100.00
2023-01-13T18:52:57.776Z,100.00
2023-01-13T18:55:26.149Z,100.00
2023-01-13T18:57:57.358Z,100.00
2023-01-13T19:00:25.830Z,100.00
2023-01-13T19:05:38.472Z,100.00
2023-01-13T19:08:07.171Z,100.00
2023-01-13T19:10:34.718Z,100.00
2023-01-13T19:13:03.520Z,100.00
2023-01-13T19:15:31.889Z,100.00
2023-01-13T19:18:01.350Z,100.00
2023-01-13T19:20:29.530Z,100.00
2023-01-13T19:22:57.316Z,100.00
2023-01-13T19:25:25.338Z,100.00
2023-01-13T19:27:55.828Z,100.00
2023-01-13T19:30:25.497Z,100.00
2023-01-13T19:32:53.044Z,100.00
2023-01-13T19:35:20.601Z,100.00
2023-01-13T19:37:48.559Z,100.00
2023-01-13T19:40:16.730Z,100.00
2023-01-13T19:43:03.986Z,100.00
2023-01-13T19:45:36.172Z,100.00
2023-01-13T19:48:06.724Z,100.00
2023-01-13T19:50:43.086Z,100.00
2023-01-13T19:53:21.061Z,100.00
2023-01-13T19:55:50.086Z,100.00
2023-01-13T19:58:20.223Z,100.00
2023-01-13T20:00:56.625Z,100.00
2023-01-13T20:03:33.326Z,100.00
2023-01-13T20:06:12.157Z,100.00
2023-01-13T20:08:41.551Z,100.00
2023-01-13T20:11:31.148Z,100.00
2023-01-13T20:13:59.521Z,100.00
2023-01-13T20:16:33.122Z,100.00
2023-01-13T20:19:00.174Z,100.00
2023-01-13T20:21:28.727Z,100.00
2023-01-13T20:23:59.164Z,100.00
2023-01-13T20:26:27.225Z,100.00
2023-01-13T20:28:54.484Z,100.00
2023-01-13T20:31:21.988Z,100.00
2023-01-13T20:33:50.948Z,100.00
2023-01-13T20:36:32.311Z,100.00
2023-01-13T20:39:01.984Z,100.00
2023-01-13T20:41:48.563Z,100.00
2023-01-13T20:44:16.251Z,100.00
2023-01-13T20:46:45.090Z,100.00
2023-01-13T20:49:15.213Z,100.00
2023-01-13T20:51:47.317Z,100.00
2023-01-13T20:54:16.417Z,100.00
2023-01-13T20:56:44.962Z,100.00
2023-01-13T20:59:13.361Z,100.00
2023-01-13T21:01:40.690Z,100.00
2023-01-13T21:04:08.751Z,100.00
2023-01-13T21:06:36.485Z,100.00
2023-01-13T21:09:04.162Z,100.00
2023-01-13T21:11:49.855Z,100.00
2023-01-13T21:14:39.364Z,100.00
2023-01-13T21:17:08.641Z,100.00
2023-01-13T21:19:35.778Z,100.00
2023-01-13T21:22:04.403Z,100.00
2023-01-13T21:24:31.976Z,100.00
2023-01-13T21:27:00.167Z,100.00
2023-01-13T21:29:29.682Z,100.00
2023-01-13T21:31:57.651Z,100.00
2023-01-13T21:34:24.964Z,100.00
2023-01-13T21:36:52.082Z,100.00
2023-01-13T21:39:19.191Z,100.00
2023-01-13T21:42:04.885Z,100.00
2023-01-13T21:44:50.674Z,100.00
2023-01-13T21:47:39.924Z,100.00
2023-01-13T21:50:13.376Z,100.00
2023-01-13T21:52:44.003Z,100.00
2023-01-13T21:55:25.047Z,100.00
2023-01-13T21:58:10.423Z,100.00
2023-01-13T22:00:38.857Z,100.00
2023-01-13T22:03:08.173Z,100.00
2023-01-13T22:05:37.525Z,100.00
2023-01-13T22:08:05.617Z,100.00
2023-01-13T22:10:34.225Z,100.00
2023-01-13T22:13:23.691Z,100.00
2023-01-13T22:15:52.167Z,100.00
2023-01-13T22:18:20.244Z,100.00
2023-01-13T22:20:49.364Z,100.00
2023-01-13T22:23:16.907Z,100.00
2023-01-13T22:25:44.487Z,100.00
2023-01-13T22:28:14.552Z,100.00
2023-01-13T22:30:41.819Z,100.00
2023-01-13T22:33:09.045Z,100.00
2023-01-13T22:35:36.327Z,100.00
2023-01-13T22:38:03.508Z,100.00
2023-01-13T22:40:30.723Z,100.00
2023-01-13T22:42:58.006Z,100.00
2023-01-13T22:45:25.153Z,100.00
2023-01-13T22:47:52.652Z,100.00
2023-01-13T22:50:21.185Z,100.00
2023-01-13T22:52:48.882Z,100.00
2023-01-13T22:55:16.056Z,100.00
2023-01-13T22:57:48.239Z,100.00
2023-01-13T23:00:19.346Z,100.00
2023-01-13T23:02:47.205Z,100.00
2023-01-13T23:05:14.323Z,100.00
2023-01-13T23:07:41.675Z,100.00
2023-01-13T23:10:09.203Z,100.00
2023-01-13T23:12:36.182Z,100.00
2023-01-13T23:15:04.251Z,100.00
2023-01-13T23:17:31.446Z,100.00
2023-01-13T23:19:58.803Z,100.00
2023-01-13T23:22:25.848Z,100.00
2023-01-13T23:24:53.206Z,100.00
2023-01-13T23:27:20.490Z,100.00
2023-01-13T23:29:48.095Z,100.00
2023-01-13T23:32:15.290Z,100.00
2023-01-13T23:34:42.557Z,100.00
2023-01-13T23:37:09.527Z,100.00
2023-01-13T23:39:37.034Z,100.00
2023-01-13T23:42:04.517Z,100.00
2023-01-13T23:44:31.601Z,100.00
2023-01-13T23:46:58.964Z,100.00
2023-01-13T23:49:26.005Z,100.00
2023-01-13T23:51:53.291Z,100.00
2023-01-13T23:54:20.484Z,100.00
2023-01-13T23:56:50.489Z,100.00
2023-01-13T23:59:18.784Z,100.00
